sensor_id;sensor_type;location;lat;lon;timestamp;P1;durP1;ratioP1;P2;durP2;ratioP2
36457;SDS011;22480;50.546;12.292;2023-09-07T00:00:43;5.85;;;5.18;;
36457;SDS011;22480;50.546;12.292;2023-09-07T00:03:08;5.82;;;5.15;;
36457;SDS011;22480;50.546;12.292;2023-09-07T00:05:34;8.55;;;5.35;;
36457;SDS011;22480;50.546;12.292;2023-09-07T00:08:00;6.13;;;5.53;;
36457;SDS011;22480;50.546;12.292;2023-09-07T00:10:26;8.13;;;5.47;;
36457;SDS011;22480;50.546;12.292;2023-09-07T00:12:52;5.35;;;4.68;;
36457;SDS011;22480;50.546;12.292;2023-09-07T00:15:18;7.65;;;5.20;;
36457;SDS011;22480;50.546;12.292;2023-09-07T00:17:45;8.18;;;5.45;;
36457;SDS011;22480;50.546;12.292;2023-09-07T00:20:11;8.00;;;4.80;;
36457;SDS011;22480;50.546;12.292;2023-09-07T00:22:37;6.18;;;4.38;;
36457;SDS011;22480;50.546;12.292;2023-09-07T00:25:03;6.57;;;4.43;;
36457;SDS011;22480;50.546;12.292;2023-09-07T00:27:29;6.43;;;4.15;;
36457;SDS011;22480;50.546;12.292;2023-09-07T00:29:55;8.38;;;4.18;;
36457;SDS011;22480;50.546;12.292;2023-09-07T00:32:21;5.68;;;4.30;;
36457;SDS011;22480;50.546;12.292;2023-09-07T00:34:47;5.15;;;3.88;;
36457;SDS011;22480;50.546;12.292;2023-09-07T00:37:12;5.25;;;3.80;;
36457;SDS011;22480;50.546;12.292;2023-09-07T00:39:38;5.82;;;4.65;;
36457;SDS011;22480;50.546;12.292;2023-09-07T00:42:04;5.53;;;4.78;;
36457;SDS011;22480;50.546;12.292;2023-09-07T00:44:30;5.47;;;4.30;;
36457;SDS011;22480;50.546;12.292;2023-09-07T00:46:58;5.97;;;4.78;;
36457;SDS011;22480;50.546;12.292;2023-09-07T00:49:24;5.65;;;4.75;;
36457;SDS011;22480;50.546;12.292;2023-09-07T00:51:51;7.93;;;4.50;;
36457;SDS011;22480;50.546;12.292;2023-09-07T00:54:17;7.53;;;5.40;;
36457;SDS011;22480;50.546;12.292;2023-09-07T00:56:43;7.88;;;5.30;;
36457;SDS011;22480;50.546;12.292;2023-09-07T00:59:09;5.22;;;4.53;;
36457;SDS011;22480;50.546;12.292;2023-09-07T01:01:37;5.90;;;4.93;;
36457;SDS011;22480;50.546;12.292;2023-09-07T01:04:02;5.95;;;5.35;;
36457;SDS011;22480;50.546;12.292;2023-09-07T01:06:39;7.68;;;5.47;;
36457;SDS011;22480;50.546;12.292;2023-09-07T01:09:17;7.35;;;5.13;;
36457;SDS011;22480;50.546;12.292;2023-09-07T01:11:47;7.72;;;5.88;;
36457;SDS011;22480;50.546;12.292;2023-09-07T01:14:13;6.63;;;5.80;;
36457;SDS011;22480;50.546;12.292;2023-09-07T01:16:38;8.57;;;5.93;;
36457;SDS011;22480;50.546;12.292;2023-09-07T01:19:06;5.78;;;5.07;;
36457;SDS011;22480;50.546;12.292;2023-09-07T01:21:35;7.68;;;6.18;;
36457;SDS011;22480;50.546;12.292;2023-09-07T01:24:08;6.13;;;5.28;;
36457;SDS011;22480;50.546;12.292;2023-09-07T01:26:35;7.60;;;6.35;;
36457;SDS011;22480;50.546;12.292;2023-09-07T01:29:06;8.85;;;6.68;;
36457;SDS011;22480;50.546;12.292;2023-09-07T01:31:37;8.18;;;6.53;;
36457;SDS011;22480;50.546;12.292;2023-09-07T01:34:04;8.68;;;6.72;;
36457;SDS011;22480;50.546;12.292;2023-09-07T01:36:31;8.02;;;6.55;;
36457;SDS011;22480;50.546;12.292;2023-09-07T01:38:59;8.25;;;6.15;;
36457;SDS011;22480;50.546;12.292;2023-09-07T01:41:26;7.45;;;6.60;;
36457;SDS011;22480;50.546;12.292;2023-09-07T01:43:52;9.25;;;6.55;;
36457;SDS011;22480;50.546;12.292;2023-09-07T01:46:19;8.95;;;6.57;;
36457;SDS011;22480;50.546;12.292;2023-09-07T01:48:45;9.02;;;6.88;;
36457;SDS011;22480;50.546;12.292;2023-09-07T01:51:11;7.00;;;6.03;;
36457;SDS011;22480;50.546;12.292;2023-09-07T01:53:37;10.07;;;6.95;;
36457;SDS011;22480;50.546;12.292;2023-09-07T01:56:02;8.55;;;7.68;;
36457;SDS011;22480;50.546;12.292;2023-09-07T01:58:29;7.85;;;6.60;;
36457;SDS011;22480;50.546;12.292;2023-09-07T02:00:58;8.93;;;8.02;;
36457;SDS011;22480;50.546;12.292;2023-09-07T02:03:25;8.88;;;7.53;;
36457;SDS011;22480;50.546;12.292;2023-09-07T02:05:54;11.40;;;8.18;;
36457;SDS011;22480;50.546;12.292;2023-09-07T02:08:20;11.02;;;7.65;;
36457;SDS011;22480;50.546;12.292;2023-09-07T02:10:46;11.90;;;8.32;;
36457;SDS011;22480;50.546;12.292;2023-09-07T02:13:12;8.65;;;7.22;;
36457;SDS011;22480;50.546;12.292;2023-09-07T02:15:38;9.90;;;7.40;;
36457;SDS011;22480;50.546;12.292;2023-09-07T02:18:04;11.13;;;8.05;;
36457;SDS011;22480;50.546;12.292;2023-09-07T02:20:34;8.95;;;8.05;;
36457;SDS011;22480;50.546;12.292;2023-09-07T02:23:00;10.35;;;7.80;;
36457;SDS011;22480;50.546;12.292;2023-09-07T02:25:26;8.98;;;7.70;;
36457;SDS011;22480;50.546;12.292;2023-09-07T02:27:53;9.85;;;8.32;;
36457;SDS011;22480;50.546;12.292;2023-09-07T02:30:19;11.27;;;8.45;;
36457;SDS011;22480;50.546;12.292;2023-09-07T02:32:44;9.43;;;7.95;;
36457;SDS011;22480;50.546;12.292;2023-09-07T02:35:10;8.82;;;7.63;;
36457;SDS011;22480;50.546;12.292;2023-09-07T02:37:38;10.60;;;8.80;;
36457;SDS011;22480;50.546;12.292;2023-09-07T02:40:05;9.68;;;8.68;;
36457;SDS011;22480;50.546;12.292;2023-09-07T02:42:34;10.18;;;8.10;;
36457;SDS011;22480;50.546;12.292;2023-09-07T02:45:00;9.50;;;8.52;;
36457;SDS011;22480;50.546;12.292;2023-09-07T02:47:26;9.30;;;8.35;;
36457;SDS011;22480;50.546;12.292;2023-09-07T02:49:52;9.60;;;8.40;;
36457;SDS011;22480;50.546;12.292;2023-09-07T02:52:18;12.43;;;9.40;;
36457;SDS011;22480;50.546;12.292;2023-09-07T02:54:44;9.73;;;8.73;;
36457;SDS011;22480;50.546;12.292;2023-09-07T02:57:11;12.45;;;9.25;;
36457;SDS011;22480;50.546;12.292;2023-09-07T02:59:38;11.55;;;9.95;;
36457;SDS011;22480;50.546;12.292;2023-09-07T03:02:03;10.18;;;9.02;;
36457;SDS011;22480;50.546;12.292;2023-09-07T03:04:30;10.95;;;9.02;;
36457;SDS011;22480;50.546;12.292;2023-09-07T03:06:56;14.45;;;9.00;;
36457;SDS011;22480;50.546;12.292;2023-09-07T03:09:22;11.18;;;9.00;;
36457;SDS011;22480;50.546;12.292;2023-09-07T03:11:47;11.52;;;9.68;;
36457;SDS011;22480;50.546;12.292;2023-09-07T03:14:13;12.95;;;9.88;;
36457;SDS011;22480;50.546;12.292;2023-09-07T03:16:39;10.98;;;9.57;;
36457;SDS011;22480;50.546;12.292;2023-09-07T03:19:07;10.45;;;8.48;;
36457;SDS011;22480;50.546;12.292;2023-09-07T03:21:32;9.75;;;8.32;;
36457;SDS011;22480;50.546;12.292;2023-09-07T03:23:58;10.10;;;8.35;;
36457;SDS011;22480;50.546;12.292;2023-09-07T03:26:25;10.05;;;8.32;;
36457;SDS011;22480;50.546;12.292;2023-09-07T03:28:51;10.13;;;9.07;;
36457;SDS011;22480;50.546;12.292;2023-09-07T03:31:18;10.70;;;9.27;;
36457;SDS011;22480;50.546;12.292;2023-09-07T03:33:45;10.00;;;8.88;;
36457;SDS011;22480;50.546;12.292;2023-09-07T03:36:11;11.20;;;9.65;;
36457;SDS011;22480;50.546;12.292;2023-09-07T03:38:40;10.95;;;9.82;;
36457;SDS011;22480;50.546;12.292;2023-09-07T03:41:06;13.30;;;10.70;;
36457;SDS011;22480;50.546;12.292;2023-09-07T03:43:33;11.80;;;10.02;;
36457;SDS011;22480;50.546;12.292;2023-09-07T03:45:58;12.00;;;10.10;;
36457;SDS011;22480;50.546;12.292;2023-09-07T03:48:24;11.38;;;10.18;;
36457;SDS011;22480;50.546;12.292;2023-09-07T03:50:50;12.30;;;10.38;;
36457;SDS011;22480;50.546;12.292;2023-09-07T03:53:16;14.35;;;11.40;;
36457;SDS011;22480;50.546;12.292;2023-09-07T03:55:44;11.75;;;10.55;;
36457;SDS011;22480;50.546;12.292;2023-09-07T03:58:13;12.80;;;10.55;;
36457;SDS011;22480;50.546;12.292;2023-09-07T04:00:41;13.02;;;10.45;;
36457;SDS011;22480;50.546;12.292;2023-09-07T04:03:07;12.32;;;10.98;;
36457;SDS011;22480;50.546;12.292;2023-09-07T04:05:33;15.45;;;12.55;;
36457;SDS011;22480;50.546;12.292;2023-09-07T04:08:01;18.05;;;13.52;;
36457;SDS011;22480;50.546;12.292;2023-09-07T04:10:28;14.23;;;12.65;;
36457;SDS011;22480;50.546;12.292;2023-09-07T04:12:54;15.88;;;12.40;;
36457;SDS011;22480;50.546;12.292;2023-09-07T04:15:20;20.30;;;13.95;;
36457;SDS011;22480;50.546;12.292;2023-09-07T04:17:46;15.88;;;13.00;;
36457;SDS011;22480;50.546;12.292;2023-09-07T04:20:11;14.95;;;12.73;;
36457;SDS011;22480;50.546;12.292;2023-09-07T04:22:38;15.43;;;12.93;;
36457;SDS011;22480;50.546;12.292;2023-09-07T04:25:05;15.80;;;13.73;;
36457;SDS011;22480;50.546;12.292;2023-09-07T04:27:32;16.90;;;13.63;;
36457;SDS011;22480;50.546;12.292;2023-09-07T04:29:58;14.77;;;12.95;;
36457;SDS011;22480;50.546;12.292;2023-09-07T04:32:25;14.07;;;12.40;;
36457;SDS011;22480;50.546;12.292;2023-09-07T04:34:55;17.42;;;14.63;;
36457;SDS011;22480;50.546;12.292;2023-09-07T04:37:22;17.80;;;13.63;;
36457;SDS011;22480;50.546;12.292;2023-09-07T04:39:51;17.42;;;14.65;;
36457;SDS011;22480;50.546;12.292;2023-09-07T04:42:19;19.08;;;15.55;;
36457;SDS011;22480;50.546;12.292;2023-09-07T04:44:46;18.48;;;14.48;;
36457;SDS011;22480;50.546;12.292;2023-09-07T04:47:12;17.88;;;14.77;;
36457;SDS011;22480;50.546;12.292;2023-09-07T04:49:38;18.77;;;14.50;;
36457;SDS011;22480;50.546;12.292;2023-09-07T04:52:04;16.85;;;13.40;;
36457;SDS011;22480;50.546;12.292;2023-09-07T04:54:30;15.82;;;13.55;;
36457;SDS011;22480;50.546;12.292;2023-09-07T04:56:56;18.63;;;14.50;;
36457;SDS011;22480;50.546;12.292;2023-09-07T04:59:21;15.95;;;13.50;;
36457;SDS011;22480;50.546;12.292;2023-09-07T05:01:47;15.13;;;12.70;;
36457;SDS011;22480;50.546;12.292;2023-09-07T05:04:13;17.50;;;13.13;;
36457;SDS011;22480;50.546;12.292;2023-09-07T05:06:39;15.23;;;12.98;;
36457;SDS011;22480;50.546;12.292;2023-09-07T05:09:07;16.83;;;13.32;;
36457;SDS011;22480;50.546;12.292;2023-09-07T05:11:32;16.70;;;13.65;;
36457;SDS011;22480;50.546;12.292;2023-09-07T05:14:02;15.32;;;13.05;;
36457;SDS011;22480;50.546;12.292;2023-09-07T05:16:28;15.40;;;12.13;;
36457;SDS011;22480;50.546;12.292;2023-09-07T05:18:54;12.48;;;11.02;;
36457;SDS011;22480;50.546;12.292;2023-09-07T05:21:21;13.57;;;11.52;;
36457;SDS011;22480;50.546;12.292;2023-09-07T05:23:46;15.02;;;11.80;;
36457;SDS011;22480;50.546;12.292;2023-09-07T05:26:12;15.10;;;11.45;;
36457;SDS011;22480;50.546;12.292;2023-09-07T05:28:39;14.02;;;11.07;;
36457;SDS011;22480;50.546;12.292;2023-09-07T05:31:07;11.23;;;10.13;;
36457;SDS011;22480;50.546;12.292;2023-09-07T05:33:33;12.10;;;10.75;;
36457;SDS011;22480;50.546;12.292;2023-09-07T05:35:59;12.73;;;10.88;;
36457;SDS011;22480;50.546;12.292;2023-09-07T05:38:27;8.98;;;8.07;;
36457;SDS011;22480;50.546;12.292;2023-09-07T05:40:53;8.70;;;6.93;;
36457;SDS011;22480;50.546;12.292;2023-09-07T05:43:20;5.88;;;5.35;;
36457;SDS011;22480;50.546;12.292;2023-09-07T05:45:46;5.68;;;5.10;;
36457;SDS011;22480;50.546;12.292;2023-09-07T05:48:13;5.32;;;4.25;;
36457;SDS011;22480;50.546;12.292;2023-09-07T05:50:42;5.50;;;4.10;;
36457;SDS011;22480;50.546;12.292;2023-09-07T05:53:08;4.70;;;4.13;;
36457;SDS011;22480;50.546;12.292;2023-09-07T05:55:34;4.85;;;3.95;;
36457;SDS011;22480;50.546;12.292;2023-09-07T05:58:05;6.05;;;3.75;;
36457;SDS011;22480;50.546;12.292;2023-09-07T06:00:34;4.38;;;3.53;;
36457;SDS011;22480;50.546;12.292;2023-09-07T06:03:01;5.10;;;4.00;;
36457;SDS011;22480;50.546;12.292;2023-09-07T06:05:28;5.45;;;3.50;;
36457;SDS011;22480;50.546;12.292;2023-09-07T06:07:54;6.78;;;4.10;;
36457;SDS011;22480;50.546;12.292;2023-09-07T06:10:20;3.70;;;3.33;;
36457;SDS011;22480;50.546;12.292;2023-09-07T06:12:48;5.88;;;3.92;;
36457;SDS011;22480;50.546;12.292;2023-09-07T06:15:14;3.50;;;3.20;;
36457;SDS011;22480;50.546;12.292;2023-09-07T06:17:41;5.18;;;3.50;;
36457;SDS011;22480;50.546;12.292;2023-09-07T06:20:07;5.57;;;3.35;;
36457;SDS011;22480;50.546;12.292;2023-09-07T06:22:34;5.55;;;3.78;;
36457;SDS011;22480;50.546;12.292;2023-09-07T06:25:00;5.10;;;3.67;;
36457;SDS011;22480;50.546;12.292;2023-09-07T06:27:26;3.40;;;3.10;;
36457;SDS011;22480;50.546;12.292;2023-09-07T06:29:52;5.65;;;3.63;;
36457;SDS011;22480;50.546;12.292;2023-09-07T06:32:18;4.20;;;3.33;;
36457;SDS011;22480;50.546;12.292;2023-09-07T06:34:44;6.13;;;3.20;;
36457;SDS011;22480;50.546;12.292;2023-09-07T06:37:10;4.03;;;3.15;;
36457;SDS011;22480;50.546;12.292;2023-09-07T06:39:38;5.72;;;3.78;;
36457;SDS011;22480;50.546;12.292;2023-09-07T06:42:04;4.00;;;3.15;;
36457;SDS011;22480;50.546;12.292;2023-09-07T06:44:37;3.65;;;3.05;;
36457;SDS011;22480;50.546;12.292;2023-09-07T06:47:03;6.78;;;3.80;;
36457;SDS011;22480;50.546;12.292;2023-09-07T06:49:29;8.45;;;4.10;;
36457;SDS011;22480;50.546;12.292;2023-09-07T06:51:56;4.25;;;3.70;;
36457;SDS011;22480;50.546;12.292;2023-09-07T06:54:22;8.25;;;3.95;;
36457;SDS011;22480;50.546;12.292;2023-09-07T06:56:48;8.88;;;4.00;;
36457;SDS011;22480;50.546;12.292;2023-09-07T06:59:14;13.07;;;3.88;;
36457;SDS011;22480;50.546;12.292;2023-09-07T07:01:40;7.70;;;3.80;;
36457;SDS011;22480;50.546;12.292;2023-09-07T07:04:05;9.45;;;3.42;;
36457;SDS011;22480;50.546;12.292;2023-09-07T07:06:32;8.65;;;3.92;;
36457;SDS011;22480;50.546;12.292;2023-09-07T07:08:59;14.60;;;3.90;;
36457;SDS011;22480;50.546;12.292;2023-09-07T07:11:26;12.63;;;4.13;;
36457;SDS011;22480;50.546;12.292;2023-09-07T07:13:52;7.60;;;3.80;;
36457;SDS011;22480;50.546;12.292;2023-09-07T07:16:18;8.07;;;3.83;;
36457;SDS011;22480;50.546;12.292;2023-09-07T07:18:44;8.35;;;3.47;;
36457;SDS011;22480;50.546;12.292;2023-09-07T07:21:10;6.43;;;3.50;;
36457;SDS011;22480;50.546;12.292;2023-09-07T07:23:36;9.73;;;3.83;;
36457;SDS011;22480;50.546;12.292;2023-09-07T07:26:02;3.97;;;3.10;;
36457;SDS011;22480;50.546;12.292;2023-09-07T07:28:28;3.70;;;3.40;;
36457;SDS011;22480;50.546;12.292;2023-09-07T07:30:54;4.18;;;3.08;;
36457;SDS011;22480;50.546;12.292;2023-09-07T07:33:21;4.10;;;3.33;;
36457;SDS011;22480;50.546;12.292;2023-09-07T07:35:48;4.50;;;2.15;;
36457;SDS011;22480;50.546;12.292;2023-09-07T07:38:14;4.70;;;3.08;;
36457;SDS011;22480;50.546;12.292;2023-09-07T07:40:41;5.75;;;2.75;;
36457;SDS011;22480;50.546;12.292;2023-09-07T07:43:08;5.03;;;2.85;;
36457;SDS011;22480;50.546;12.292;2023-09-07T07:45:35;2.60;;;2.40;;
36457;SDS011;22480;50.546;12.292;2023-09-07T07:48:04;4.15;;;2.83;;
36457;SDS011;22480;50.546;12.292;2023-09-07T07:50:37;3.22;;;2.80;;
36457;SDS011;22480;50.546;12.292;2023-09-07T07:53:07;3.15;;;2.85;;
36457;SDS011;22480;50.546;12.292;2023-09-07T07:55:35;5.68;;;2.97;;
36457;SDS011;22480;50.546;12.292;2023-09-07T07:58:06;6.63;;;2.88;;
36457;SDS011;22480;50.546;12.292;2023-09-07T08:00:37;7.68;;;3.45;;
36457;SDS011;22480;50.546;12.292;2023-09-07T08:03:04;4.30;;;2.80;;
36457;SDS011;22480;50.546;12.292;2023-09-07T08:05:35;4.07;;;2.90;;
36457;SDS011;22480;50.546;12.292;2023-09-07T08:08:02;3.35;;;2.78;;
36457;SDS011;22480;50.546;12.292;2023-09-07T08:10:28;4.15;;;2.90;;
36457;SDS011;22480;50.546;12.292;2023-09-07T08:12:54;5.07;;;2.58;;
36457;SDS011;22480;50.546;12.292;2023-09-07T08:15:20;3.33;;;2.40;;
36457;SDS011;22480;50.546;12.292;2023-09-07T08:17:49;5.13;;;2.70;;
36457;SDS011;22480;50.546;12.292;2023-09-07T08:20:15;3.47;;;2.78;;
36457;SDS011;22480;50.546;12.292;2023-09-07T08:22:41;2.80;;;2.50;;
36457;SDS011;22480;50.546;12.292;2023-09-07T08:25:10;3.20;;;2.33;;
36457;SDS011;22480;50.546;12.292;2023-09-07T08:27:42;3.20;;;2.88;;
36457;SDS011;22480;50.546;12.292;2023-09-07T08:30:13;2.67;;;2.47;;
36457;SDS011;22480;50.546;12.292;2023-09-07T08:32:44;3.10;;;2.50;;
36457;SDS011;22480;50.546;12.292;2023-09-07T08:35:11;4.15;;;2.53;;
36457;SDS011;22480;50.546;12.292;2023-09-07T08:37:38;2.92;;;2.47;;
36457;SDS011;22480;50.546;12.292;2023-09-07T08:40:07;2.63;;;2.20;;
36457;SDS011;22480;50.546;12.292;2023-09-07T08:42:37;2.50;;;2.28;;
36457;SDS011;22480;50.546;12.292;2023-09-07T08:45:04;3.15;;;2.40;;
36457;SDS011;22480;50.546;12.292;2023-09-07T08:47:33;3.15;;;2.53;;
36457;SDS011;22480;50.546;12.292;2023-09-07T08:50:01;4.50;;;2.70;;
36457;SDS011;22480;50.546;12.292;2023-09-07T08:52:27;5.93;;;3.10;;
36457;SDS011;22480;50.546;12.292;2023-09-07T08:54:53;5.22;;;2.83;;
36457;SDS011;22480;50.546;12.292;2023-09-07T08:57:23;2.80;;;2.47;;
36457;SDS011;22480;50.546;12.292;2023-09-07T08:59:50;4.25;;;2.85;;
36457;SDS011;22480;50.546;12.292;2023-09-07T09:02:15;8.88;;;3.00;;
36457;SDS011;22480;50.546;12.292;2023-09-07T09:04:41;5.43;;;2.80;;
36457;SDS011;22480;50.546;12.292;2023-09-07T09:07:07;4.47;;;3.00;;
36457;SDS011;22480;50.546;12.292;2023-09-07T09:09:33;7.15;;;2.72;;
36457;SDS011;22480;50.546;12.292;2023-09-07T09:12:11;3.38;;;2.80;;
36457;SDS011;22480;50.546;12.292;2023-09-07T09:14:39;3.63;;;2.75;;
36457;SDS011;22480;50.546;12.292;2023-09-07T09:17:13;4.20;;;3.17;;
36457;SDS011;22480;50.546;12.292;2023-09-07T09:19:40;6.05;;;3.03;;
36457;SDS011;22480;50.546;12.292;2023-09-07T09:22:06;4.30;;;3.28;;
36457;SDS011;22480;50.546;12.292;2023-09-07T09:24:33;4.40;;;3.05;;
36457;SDS011;22480;50.546;12.292;2023-09-07T09:26:59;4.97;;;2.60;;
36457;SDS011;22480;50.546;12.292;2023-09-07T09:29:25;7.55;;;2.70;;
36457;SDS011;22480;50.546;12.292;2023-09-07T09:31:52;4.97;;;2.80;;
36457;SDS011;22480;50.546;12.292;2023-09-07T09:34:18;4.35;;;2.55;;
36457;SDS011;22480;50.546;12.292;2023-09-07T09:36:45;6.43;;;2.72;;
36457;SDS011;22480;50.546;12.292;2023-09-07T09:39:20;5.30;;;3.10;;
36457;SDS011;22480;50.546;12.292;2023-09-07T09:41:47;3.97;;;2.70;;
36457;SDS011;22480;50.546;12.292;2023-09-07T09:44:13;4.38;;;3.20;;
36457;SDS011;22480;50.546;12.292;2023-09-07T09:46:41;2.97;;;2.60;;
36457;SDS011;22480;50.546;12.292;2023-09-07T09:49:08;4.88;;;2.70;;
36457;SDS011;22480;50.546;12.292;2023-09-07T09:51:36;3.85;;;2.97;;
36457;SDS011;22480;50.546;12.292;2023-09-07T09:54:03;4.43;;;2.88;;
36457;SDS011;22480;50.546;12.292;2023-09-07T09:56:31;4.40;;;2.72;;
36457;SDS011;22480;50.546;12.292;2023-09-07T09:58:57;5.38;;;2.40;;
36457;SDS011;22480;50.546;12.292;2023-09-07T10:01:23;2.60;;;2.40;;
36457;SDS011;22480;50.546;12.292;2023-09-07T10:03:49;4.97;;;2.63;;
36457;SDS011;22480;50.546;12.292;2023-09-07T10:06:23;2.70;;;2.50;;
36457;SDS011;22480;50.546;12.292;2023-09-07T10:08:52;3.47;;;2.50;;
36457;SDS011;22480;50.546;12.292;2023-09-07T10:11:33;6.22;;;2.63;;
36457;SDS011;22480;50.546;12.292;2023-09-07T10:14:00;5.07;;;3.00;;
36457;SDS011;22480;50.546;12.292;2023-09-07T10:16:43;6.10;;;2.60;;
36457;SDS011;22480;50.546;12.292;2023-09-07T10:19:14;4.65;;;2.80;;
36457;SDS011;22480;50.546;12.292;2023-09-07T10:22:01;3.03;;;2.58;;
36457;SDS011;22480;50.546;12.292;2023-09-07T10:24:34;3.17;;;2.40;;
36457;SDS011;22480;50.546;12.292;2023-09-07T10:27:05;3.15;;;2.20;;
36457;SDS011;22480;50.546;12.292;2023-09-07T10:29:42;2.58;;;2.38;;
36457;SDS011;22480;50.546;12.292;2023-09-07T10:32:09;4.80;;;2.45;;
36457;SDS011;22480;50.546;12.292;2023-09-07T10:34:38;3.87;;;2.70;;
36457;SDS011;22480;50.546;12.292;2023-09-07T10:37:10;3.38;;;2.30;;
36457;SDS011;22480;50.546;12.292;2023-09-07T10:39:41;3.60;;;2.63;;
36457;SDS011;22480;50.546;12.292;2023-09-07T10:42:08;3.67;;;2.50;;
36457;SDS011;22480;50.546;12.292;2023-09-07T10:44:44;4.43;;;2.47;;
36457;SDS011;22480;50.546;12.292;2023-09-07T10:47:10;3.13;;;2.65;;
36457;SDS011;22480;50.546;12.292;2023-09-07T10:49:37;3.65;;;2.60;;
36457;SDS011;22480;50.546;12.292;2023-09-07T10:52:04;4.93;;;3.00;;
36457;SDS011;22480;50.546;12.292;2023-09-07T10:54:30;3.45;;;2.33;;
36457;SDS011;22480;50.546;12.292;2023-09-07T10:56:55;3.03;;;2.35;;
36457;SDS011;22480;50.546;12.292;2023-09-07T10:59:23;3.08;;;2.13;;
36457;SDS011;22480;50.546;12.292;2023-09-07T11:01:53;3.03;;;2.17;;
36457;SDS011;22480;50.546;12.292;2023-09-07T11:04:18;4.53;;;2.17;;
36457;SDS011;22480;50.546;12.292;2023-09-07T11:06:45;3.85;;;2.40;;
36457;SDS011;22480;50.546;12.292;2023-09-07T11:09:11;4.75;;;2.63;;
36457;SDS011;22480;50.546;12.292;2023-09-07T11:11:37;3.53;;;2.50;;
36457;SDS011;22480;50.546;12.292;2023-09-07T11:14:03;2.50;;;2.30;;
36457;SDS011;22480;50.546;12.292;2023-09-07T11:16:29;2.90;;;2.38;;
36457;SDS011;22480;50.546;12.292;2023-09-07T11:18:55;2.63;;;2.03;;
36457;SDS011;22480;50.546;12.292;2023-09-07T11:21:22;2.80;;;2.10;;
36457;SDS011;22480;50.546;12.292;2023-09-07T11:23:48;2.00;;;1.90;;
36457;SDS011;22480;50.546;12.292;2023-09-07T11:26:15;2.47;;;1.88;;
36457;SDS011;22480;50.546;12.292;2023-09-07T11:28:47;2.92;;;1.92;;
36457;SDS011;22480;50.546;12.292;2023-09-07T11:31:13;1.60;;;1.50;;
36457;SDS011;22480;50.546;12.292;2023-09-07T11:33:38;2.00;;;1.80;;
36457;SDS011;22480;50.546;12.292;2023-09-07T11:36:06;2.17;;;1.75;;
36457;SDS011;22480;50.546;12.292;2023-09-07T11:38:35;2.85;;;2.00;;
36457;SDS011;22480;50.546;12.292;2023-09-07T11:41:02;2.00;;;1.65;;
36457;SDS011;22480;50.546;12.292;2023-09-07T11:43:28;2.03;;;1.70;;
36457;SDS011;22480;50.546;12.292;2023-09-07T11:45:54;2.35;;;2.00;;
36457;SDS011;22480;50.546;12.292;2023-09-07T11:48:20;3.95;;;2.05;;
36457;SDS011;22480;50.546;12.292;2023-09-07T11:50:46;2.33;;;2.10;;
36457;SDS011;22480;50.546;12.292;2023-09-07T11:53:11;2.92;;;2.00;;
36457;SDS011;22480;50.546;12.292;2023-09-07T11:55:37;2.22;;;1.95;;
36457;SDS011;22480;50.546;12.292;2023-09-07T11:58:04;2.40;;;2.20;;
36457;SDS011;22480;50.546;12.292;2023-09-07T12:00:30;2.63;;;1.70;;
36457;SDS011;22480;50.546;12.292;2023-09-07T12:02:56;2.25;;;1.90;;
36457;SDS011;22480;50.546;12.292;2023-09-07T12:05:22;6.22;;;2.30;;
36457;SDS011;22480;50.546;12.292;2023-09-07T12:07:49;2.20;;;1.95;;
36457;SDS011;22480;50.546;12.292;2023-09-07T12:10:15;3.65;;;1.85;;
36457;SDS011;22480;50.546;12.292;2023-09-07T12:12:41;2.03;;;1.80;;
36457;SDS011;22480;50.546;12.292;2023-09-07T12:15:08;2.50;;;2.03;;
36457;SDS011;22480;50.546;12.292;2023-09-07T12:17:34;2.72;;;1.92;;
36457;SDS011;22480;50.546;12.292;2023-09-07T12:20:00;3.50;;;1.92;;
36457;SDS011;22480;50.546;12.292;2023-09-07T12:22:26;2.00;;;1.75;;
36457;SDS011;22480;50.546;12.292;2023-09-07T12:24:52;1.70;;;1.60;;
36457;SDS011;22480;50.546;12.292;2023-09-07T12:27:18;1.98;;;1.70;;
36457;SDS011;22480;50.546;12.292;2023-09-07T12:29:44;2.20;;;2.00;;
36457;SDS011;22480;50.546;12.292;2023-09-07T12:32:10;2.08;;;1.73;;
36457;SDS011;22480;50.546;12.292;2023-09-07T12:34:36;3.10;;;1.65;;
36457;SDS011;22480;50.546;12.292;2023-09-07T12:37:02;2.80;;;1.60;;
36457;SDS011;22480;50.546;12.292;2023-09-07T12:39:31;3.05;;;1.52;;
36457;SDS011;22480;50.546;12.292;2023-09-07T12:41:57;2.58;;;1.73;;
36457;SDS011;22480;50.546;12.292;2023-09-07T12:44:23;3.72;;;1.92;;
36457;SDS011;22480;50.546;12.292;2023-09-07T12:46:49;3.72;;;2.05;;
36457;SDS011;22480;50.546;12.292;2023-09-07T12:49:15;2.42;;;1.85;;
36457;SDS011;22480;50.546;12.292;2023-09-07T12:51:41;3.13;;;1.90;;
36457;SDS011;22480;50.546;12.292;2023-09-07T12:54:07;2.50;;;1.52;;
36457;SDS011;22480;50.546;12.292;2023-09-07T12:56:33;2.10;;;1.90;;
36457;SDS011;22480;50.546;12.292;2023-09-07T12:58:59;1.70;;;1.60;;
36457;SDS011;22480;50.546;12.292;2023-09-07T13:01:25;3.53;;;1.83;;
36457;SDS011;22480;50.546;12.292;2023-09-07T13:03:51;4.32;;;1.75;;
36457;SDS011;22480;50.546;12.292;2023-09-07T13:06:17;3.35;;;1.90;;
36457;SDS011;22480;50.546;12.292;2023-09-07T13:08:44;4.50;;;1.90;;
36457;SDS011;22480;50.546;12.292;2023-09-07T13:11:10;3.92;;;1.95;;
36457;SDS011;22480;50.546;12.292;2023-09-07T13:13:36;6.70;;;2.28;;
36457;SDS011;22480;50.546;12.292;2023-09-07T13:16:03;9.68;;;2.35;;
36457;SDS011;22480;50.546;12.292;2023-09-07T13:18:29;4.05;;;2.40;;
36457;SDS011;22480;50.546;12.292;2023-09-07T13:20:56;3.53;;;2.08;;
36457;SDS011;22480;50.546;12.292;2023-09-07T13:23:26;5.75;;;2.60;;
36457;SDS011;22480;50.546;12.292;2023-09-07T13:25:52;3.08;;;2.70;;
36457;SDS011;22480;50.546;12.292;2023-09-07T13:28:19;7.05;;;2.70;;
36457;SDS011;22480;50.546;12.292;2023-09-07T13:30:45;3.25;;;2.50;;
36457;SDS011;22480;50.546;12.292;2023-09-07T13:33:10;5.60;;;2.58;;
36457;SDS011;22480;50.546;12.292;2023-09-07T13:35:36;4.07;;;2.50;;
36457;SDS011;22480;50.546;12.292;2023-09-07T13:38:02;4.57;;;2.35;;
36457;SDS011;22480;50.546;12.292;2023-09-07T13:40:28;3.97;;;2.30;;
36457;SDS011;22480;50.546;12.292;2023-09-07T13:42:55;3.58;;;2.38;;
36457;SDS011;22480;50.546;12.292;2023-09-07T13:45:21;2.80;;;2.40;;
36457;SDS011;22480;50.546;12.292;2023-09-07T13:47:47;3.25;;;2.10;;
36457;SDS011;22480;50.546;12.292;2023-09-07T13:50:13;3.20;;;2.35;;
36457;SDS011;22480;50.546;12.292;2023-09-07T13:52:39;5.18;;;2.50;;
36457;SDS011;22480;50.546;12.292;2023-09-07T13:55:05;2.78;;;2.58;;
36457;SDS011;22480;50.546;12.292;2023-09-07T13:57:32;3.20;;;2.72;;
36457;SDS011;22480;50.546;12.292;2023-09-07T13:59:58;4.95;;;2.58;;
36457;SDS011;22480;50.546;12.292;2023-09-07T14:02:24;4.22;;;2.38;;
36457;SDS011;22480;50.546;12.292;2023-09-07T14:04:50;4.22;;;2.20;;
36457;SDS011;22480;50.546;12.292;2023-09-07T14:07:16;3.22;;;2.17;;
36457;SDS011;22480;50.546;12.292;2023-09-07T14:09:41;4.93;;;2.53;;
36457;SDS011;22480;50.546;12.292;2023-09-07T14:12:08;3.97;;;2.17;;
36457;SDS011;22480;50.546;12.292;2023-09-07T14:14:34;3.55;;;2.30;;
36457;SDS011;22480;50.546;12.292;2023-09-07T14:16:59;4.15;;;2.53;;
36457;SDS011;22480;50.546;12.292;2023-09-07T14:19:26;3.30;;;2.67;;
36457;SDS011;22480;50.546;12.292;2023-09-07T14:21:59;5.20;;;2.90;;
36457;SDS011;22480;50.546;12.292;2023-09-07T14:26:50;9.30;;;2.95;;
36457;SDS011;22480;50.546;12.292;2023-09-07T14:29:16;2.55;;;2.20;;
36457;SDS011;22480;50.546;12.292;2023-09-07T14:31:42;2.92;;;2.55;;